sensor_id;sensor_type;location;lat;lon;timestamp;P1;durP1;ratioP1;P2;durP2;ratioP2
40849;SDS011;26571;41.610;25.380;2022-10-19T00:00:43;5.72;;;3.05;;
40849;SDS011;26571;41.610;25.380;2022-10-19T00:03:08;4.68;;;3.33;;
40849;SDS011;26571;41.610;25.380;2022-10-19T00:05:33;4.55;;;2.88;;
40849;SDS011;26571;41.610;25.380;2022-10-19T00:07:59;4.40;;;3.13;;
40849;SDS011;26571;41.610;25.380;2022-10-19T00:10:25;3.33;;;2.83;;
40849;SDS011;26571;41.610;25.380;2022-10-19T00:12:51;3.53;;;2.35;;
40849;SDS011;26571;41.610;25.380;2022-10-19T00:15:16;6.40;;;3.08;;
40849;SDS011;26571;41.610;25.380;2022-10-19T00:17:42;2.97;;;2.78;;
40849;SDS011;26571;41.610;25.380;2022-10-19T00:20:08;5.65;;;4.13;;
40849;SDS011;26571;41.610;25.380;2022-10-19T00:22:33;6.38;;;3.80;;
40849;SDS011;26571;41.610;25.380;2022-10-19T00:24:59;3.60;;;2.70;;
40849;SDS011;26571;41.610;25.380;2022-10-19T00:27:24;3.28;;;2.95;;
40849;SDS011;26571;41.610;25.380;2022-10-19T00:29:49;4.03;;;3.55;;
40849;SDS011;26571;41.610;25.380;2022-10-19T00:32:15;5.03;;;3.20;;
40849;SDS011;26571;41.610;25.380;2022-10-19T00:34:40;6.82;;;2.90;;
40849;SDS011;26571;41.610;25.380;2022-10-19T00:37:06;4.10;;;2.97;;
40849;SDS011;26571;41.610;25.380;2022-10-19T00:39:31;2.75;;;2.30;;
40849;SDS011;26571;41.610;25.380;2022-10-19T00:41:56;4.68;;;2.75;;
40849;SDS011;26571;41.610;25.380;2022-10-19T00:46:53;4.13;;;2.35;;
40849;SDS011;26571;41.610;25.380;2022-10-19T00:49:25;4.25;;;2.90;;
40849;SDS011;26571;41.610;25.380;2022-10-19T00:52:03;3.25;;;2.53;;
40849;SDS011;26571;41.610;25.380;2022-10-19T00:54:35;3.35;;;2.55;;
40849;SDS011;26571;41.610;25.380;2022-10-19T00:57:02;5.03;;;2.67;;
40849;SDS011;26571;41.610;25.380;2022-10-19T00:59:30;4.95;;;2.50;;
40849;SDS011;26571;41.610;25.380;2022-10-19T01:01:57;7.47;;;3.03;;
40849;SDS011;26571;41.610;25.380;2022-10-19T01:04:23;5.00;;;2.83;;
40849;SDS011;26571;41.610;25.380;2022-10-19T01:06:51;2.78;;;2.03;;
40849;SDS011;26571;41.610;25.380;2022-10-19T01:09:18;3.40;;;3.03;;
40849;SDS011;26571;41.610;25.380;2022-10-19T01:31:45;3.85;;;2.58;;
40849;SDS011;26571;41.610;25.380;2022-10-19T01:34:25;2.22;;;2.03;;
40849;SDS011;26571;41.610;25.380;2022-10-19T01:37:21;2.90;;;2.38;;
40849;SDS011;26571;41.610;25.380;2022-10-19T01:42:34;2.45;;;1.88;;
40849;SDS011;26571;41.610;25.380;2022-10-19T01:45:44;7.82;;;2.72;;
40849;SDS011;26571;41.610;25.380;2022-10-19T01:51:32;4.43;;;2.45;;
40849;SDS011;26571;41.610;25.380;2022-10-19T01:53:54;2.45;;;2.28;;
40849;SDS011;26571;41.610;25.380;2022-10-19T01:56:24;2.17;;;2.08;;
40849;SDS011;26571;41.610;25.380;2022-10-19T01:58:52;2.65;;;2.08;;
40849;SDS011;26571;41.610;25.380;2022-10-19T02:01:20;2.50;;;2.28;;
40849;SDS011;26571;41.610;25.380;2022-10-19T02:03:48;2.67;;;2.47;;
40849;SDS011;26571;41.610;25.380;2022-10-19T02:06:15;3.05;;;2.80;;
40849;SDS011;26571;41.610;25.380;2022-10-19T02:08:43;2.58;;;2.38;;
40849;SDS011;26571;41.610;25.380;2022-10-19T02:11:11;3.47;;;2.47;;
40849;SDS011;26571;41.610;25.380;2022-10-19T02:13:38;2.55;;;2.35;;
40849;SDS011;26571;41.610;25.380;2022-10-19T02:16:06;3.95;;;2.58;;
40849;SDS011;26571;41.610;25.380;2022-10-19T02:18:38;6.60;;;4.28;;
40849;SDS011;26571;41.610;25.380;2022-10-19T02:21:09;4.00;;;2.28;;
40849;SDS011;26571;41.610;25.380;2022-10-19T02:23:35;4.43;;;2.60;;
40849;SDS011;26571;41.610;25.380;2022-10-19T02:26:00;2.83;;;2.50;;
40849;SDS011;26571;41.610;25.380;2022-10-19T02:28:27;3.47;;;3.17;;
40849;SDS011;26571;41.610;25.380;2022-10-19T02:30:53;3.10;;;2.83;;
40849;SDS011;26571;41.610;25.380;2022-10-19T02:33:19;3.30;;;3.08;;
40849;SDS011;26571;41.610;25.380;2022-10-19T02:35:45;4.20;;;3.00;;
40849;SDS011;26571;41.610;25.380;2022-10-19T02:38:10;4.60;;;3.30;;
40849;SDS011;26571;41.610;25.380;2022-10-19T02:40:42;4.28;;;3.88;;
40849;SDS011;26571;41.610;25.380;2022-10-19T02:43:13;2.80;;;2.60;;
40849;SDS011;26571;41.610;25.380;2022-10-19T02:45:45;2.65;;;2.30;;
40849;SDS011;26571;41.610;25.380;2022-10-19T02:48:17;3.88;;;3.58;;
40849;SDS011;26571;41.610;25.380;2022-10-19T02:50:47;3.92;;;3.15;;
40849;SDS011;26571;41.610;25.380;2022-10-19T02:53:13;3.45;;;2.83;;
40849;SDS011;26571;41.610;25.380;2022-10-19T02:55:39;4.75;;;2.55;;
40849;SDS011;26571;41.610;25.380;2022-10-19T02:58:05;2.78;;;2.55;;
40849;SDS011;26571;41.610;25.380;2022-10-19T03:00:30;2.58;;;2.40;;
40849;SDS011;26571;41.610;25.380;2022-10-19T03:02:56;3.30;;;2.97;;
40849;SDS011;26571;41.610;25.380;2022-10-19T03:05:21;3.80;;;2.55;;
40849;SDS011;26571;41.610;25.380;2022-10-19T03:07:46;4.00;;;3.05;;
40849;SDS011;26571;41.610;25.380;2022-10-19T03:10:12;3.22;;;2.90;;
40849;SDS011;26571;41.610;25.380;2022-10-19T03:12:37;3.58;;;3.28;;
40849;SDS011;26571;41.610;25.380;2022-10-19T03:15:03;3.65;;;2.78;;
40849;SDS011;26571;41.610;25.380;2022-10-19T03:17:29;3.00;;;2.83;;
40849;SDS011;26571;41.610;25.380;2022-10-19T03:19:54;5.13;;;3.42;;
40849;SDS011;26571;41.610;25.380;2022-10-19T03:22:20;3.40;;;2.83;;
40849;SDS011;26571;41.610;25.380;2022-10-19T03:24:45;3.35;;;3.05;;
40849;SDS011;26571;41.610;25.380;2022-10-19T03:27:11;3.30;;;2.97;;
40849;SDS011;26571;41.610;25.380;2022-10-19T03:29:36;3.72;;;3.42;;
40849;SDS011;26571;41.610;25.380;2022-10-19T03:32:01;2.92;;;2.72;;
40849;SDS011;26571;41.610;25.380;2022-10-19T03:34:27;3.83;;;3.50;;
40849;SDS011;26571;41.610;25.380;2022-10-19T03:36:53;5.32;;;3.30;;
40849;SDS011;26571;41.610;25.380;2022-10-19T03:39:20;4.45;;;4.05;;
40849;SDS011;26571;41.610;25.380;2022-10-19T03:41:45;2.80;;;2.60;;
40849;SDS011;26571;41.610;25.380;2022-10-19T03:44:11;7.90;;;3.50;;
40849;SDS011;26571;41.610;25.380;2022-10-19T03:46:36;3.50;;;3.00;;
40849;SDS011;26571;41.610;25.380;2022-10-19T03:49:03;3.33;;;3.17;;
40849;SDS011;26571;41.610;25.380;2022-10-19T03:51:30;3.70;;;3.40;;
40849;SDS011;26571;41.610;25.380;2022-10-19T03:53:57;4.85;;;3.63;;
40849;SDS011;26571;41.610;25.380;2022-10-19T03:56:25;3.58;;;3.38;;
40849;SDS011;26571;41.610;25.380;2022-10-19T03:58:52;4.38;;;3.20;;
40849;SDS011;26571;41.610;25.380;2022-10-19T04:03:53;5.22;;;3.28;;
40849;SDS011;26571;41.610;25.380;2022-10-19T04:06:21;4.90;;;4.53;;
40849;SDS011;26571;41.610;25.380;2022-10-19T04:08:49;3.17;;;2.80;;
40849;SDS011;26571;41.610;25.380;2022-10-19T04:11:15;3.65;;;3.33;;
40849;SDS011;26571;41.610;25.380;2022-10-19T04:13:42;4.55;;;3.45;;
40849;SDS011;26571;41.610;25.380;2022-10-19T04:16:08;4.15;;;3.78;;
40849;SDS011;26571;41.610;25.380;2022-10-19T04:18:33;3.22;;;2.92;;
40849;SDS011;26571;41.610;25.380;2022-10-19T04:21:00;5.75;;;3.45;;
40849;SDS011;26571;41.610;25.380;2022-10-19T04:23:29;3.30;;;3.10;;
40849;SDS011;26571;41.610;25.380;2022-10-19T04:26:04;7.70;;;4.00;;
40849;SDS011;26571;41.610;25.380;2022-10-19T04:28:31;5.22;;;3.70;;
40849;SDS011;26571;41.610;25.380;2022-10-19T04:31:00;10.73;;;4.93;;
40849;SDS011;26571;41.610;25.380;2022-10-19T04:33:26;4.45;;;3.42;;
40849;SDS011;26571;41.610;25.380;2022-10-19T04:35:56;2.97;;;2.88;;
40849;SDS011;26571;41.610;25.380;2022-10-19T04:38:23;3.55;;;3.35;;
40849;SDS011;26571;41.610;25.380;2022-10-19T04:40:48;7.07;;;3.30;;
40849;SDS011;26571;41.610;25.380;2022-10-19T04:43:14;6.57;;;3.58;;
40849;SDS011;26571;41.610;25.380;2022-10-19T04:45:39;3.67;;;3.38;;
40849;SDS011;26571;41.610;25.380;2022-10-19T04:48:04;3.72;;;3.35;;
40849;SDS011;26571;41.610;25.380;2022-10-19T04:50:30;6.32;;;3.45;;
40849;SDS011;26571;41.610;25.380;2022-10-19T04:52:55;4.13;;;3.35;;
40849;SDS011;26571;41.610;25.380;2022-10-19T04:55:21;5.32;;;2.97;;
40849;SDS011;26571;41.610;25.380;2022-10-19T04:57:46;3.40;;;3.20;;
40849;SDS011;26571;41.610;25.380;2022-10-19T05:00:11;4.10;;;3.15;;
40849;SDS011;26571;41.610;25.380;2022-10-19T05:02:42;4.00;;;3.63;;
40849;SDS011;26571;41.610;25.380;2022-10-19T05:05:08;4.85;;;3.60;;
40849;SDS011;26571;41.610;25.380;2022-10-19T05:07:34;3.78;;;2.35;;
40849;SDS011;26571;41.610;25.380;2022-10-19T05:09:59;3.08;;;1.92;;
40849;SDS011;26571;41.610;25.380;2022-10-19T05:12:25;6.22;;;1.90;;
40849;SDS011;26571;41.610;25.380;2022-10-19T05:14:50;1.90;;;1.75;;
40849;SDS011;26571;41.610;25.380;2022-10-19T05:17:16;1.60;;;1.27;;
40849;SDS011;26571;41.610;25.380;2022-10-19T05:19:41;1.48;;;1.05;;
40849;SDS011;26571;41.610;25.380;2022-10-19T05:22:07;2.70;;;1.00;;
40849;SDS011;26571;41.610;25.380;2022-10-19T05:24:33;1.90;;;1.58;;
40849;SDS011;26571;41.610;25.380;2022-10-19T05:26:58;3.95;;;1.33;;
40849;SDS011;26571;41.610;25.380;2022-10-19T05:29:23;2.97;;;1.05;;
40849;SDS011;26571;41.610;25.380;2022-10-19T05:31:49;3.20;;;1.77;;
40849;SDS011;26571;41.610;25.380;2022-10-19T05:34:14;1.75;;;1.23;;
40849;SDS011;26571;41.610;25.380;2022-10-19T05:36:40;2.63;;;1.33;;
40849;SDS011;26571;41.610;25.380;2022-10-19T05:39:07;3.17;;;1.15;;
40849;SDS011;26571;41.610;25.380;2022-10-19T05:41:37;1.77;;;1.50;;
40849;SDS011;26571;41.610;25.380;2022-10-19T05:44:03;1.98;;;1.42;;
40849;SDS011;26571;41.610;25.380;2022-10-19T05:46:29;1.70;;;1.60;;
40849;SDS011;26571;41.610;25.380;2022-10-19T05:48:56;3.42;;;1.38;;
40849;SDS011;26571;41.610;25.380;2022-10-19T05:51:22;1.73;;;1.48;;
40849;SDS011;26571;41.610;25.380;2022-10-19T05:56:17;1.10;;;1.00;;
40849;SDS011;26571;41.610;25.380;2022-10-19T05:58:44;2.63;;;0.93;;
40849;SDS011;26571;41.610;25.380;2022-10-19T06:01:10;3.10;;;1.13;;
40849;SDS011;26571;41.610;25.380;2022-10-19T06:03:38;2.97;;;1.48;;
40849;SDS011;26571;41.610;25.380;2022-10-19T06:06:04;1.27;;;0.90;;
40849;SDS011;26571;41.610;25.380;2022-10-19T06:08:30;1.50;;;1.40;;
40849;SDS011;26571;41.610;25.380;2022-10-19T06:11:12;4.43;;;1.55;;
40849;SDS011;26571;41.610;25.380;2022-10-19T06:13:49;5.68;;;3.70;;
40849;SDS011;26571;41.610;25.380;2022-10-19T06:16:17;4.35;;;3.80;;
40849;SDS011;26571;41.610;25.380;2022-10-19T06:18:44;9.27;;;6.70;;
40849;SDS011;26571;41.610;25.380;2022-10-19T06:21:11;7.45;;;5.38;;
40849;SDS011;26571;41.610;25.380;2022-10-19T06:23:38;5.43;;;4.78;;
40849;SDS011;26571;41.610;25.380;2022-10-19T06:26:05;4.88;;;4.00;;
40849;SDS011;26571;41.610;25.380;2022-10-19T06:28:33;5.25;;;3.55;;
40849;SDS011;26571;41.610;25.380;2022-10-19T06:30:59;2.05;;;1.65;;
40849;SDS011;26571;41.610;25.380;2022-10-19T06:33:25;2.80;;;1.50;;
40849;SDS011;26571;41.610;25.380;2022-10-19T06:35:52;3.78;;;1.75;;
40849;SDS011;26571;41.610;25.380;2022-10-19T06:38:17;4.93;;;1.77;;
40849;SDS011;26571;41.610;25.380;2022-10-19T06:40:43;3.30;;;1.30;;
40849;SDS011;26571;41.610;25.380;2022-10-19T06:43:09;1.48;;;1.10;;
40849;SDS011;26571;41.610;25.380;2022-10-19T06:45:36;4.43;;;1.23;;
40849;SDS011;26571;41.610;25.380;2022-10-19T06:48:03;1.60;;;1.15;;
40849;SDS011;26571;41.610;25.380;2022-10-19T06:50:29;3.55;;;1.73;;
40849;SDS011;26571;41.610;25.380;2022-10-19T06:52:56;4.40;;;1.75;;
40849;SDS011;26571;41.610;25.380;2022-10-19T06:55:22;6.20;;;2.45;;
40849;SDS011;26571;41.610;25.380;2022-10-19T06:57:48;4.20;;;1.50;;
40849;SDS011;26571;41.610;25.380;2022-10-19T07:00:14;2.22;;;1.20;;
40849;SDS011;26571;41.610;25.380;2022-10-19T07:02:40;2.80;;;1.73;;
40849;SDS011;26571;41.610;25.380;2022-10-19T07:05:05;5.28;;;0.82;;
40849;SDS011;26571;41.610;25.380;2022-10-19T07:07:31;1.23;;;1.20;;
40849;SDS011;26571;41.610;25.380;2022-10-19T07:09:57;0.98;;;0.98;;
40849;SDS011;26571;41.610;25.380;2022-10-19T07:12:22;1.90;;;1.10;;
40849;SDS011;26571;41.610;25.380;2022-10-19T07:14:48;1.30;;;1.17;;
40849;SDS011;26571;41.610;25.380;2022-10-19T07:17:13;1.45;;;0.80;;
40849;SDS011;26571;41.610;25.380;2022-10-19T07:19:39;1.25;;;0.98;;
40849;SDS011;26571;41.610;25.380;2022-10-19T07:22:04;5.63;;;1.73;;
40849;SDS011;26571;41.610;25.380;2022-10-19T07:24:29;7.22;;;1.20;;
40849;SDS011;26571;41.610;25.380;2022-10-19T07:26:55;2.30;;;1.60;;
40849;SDS011;26571;41.610;25.380;2022-10-19T07:29:20;6.10;;;1.30;;
40849;SDS011;26571;41.610;25.380;2022-10-19T07:31:46;3.78;;;1.10;;
40849;SDS011;26571;41.610;25.380;2022-10-19T07:34:12;1.38;;;1.27;;
40849;SDS011;26571;41.610;25.380;2022-10-19T07:36:38;2.60;;;1.00;;
40849;SDS011;26571;41.610;25.380;2022-10-19T07:39:08;1.30;;;1.20;;
40849;SDS011;26571;41.610;25.380;2022-10-19T07:41:34;1.73;;;0.60;;
40849;SDS011;26571;41.610;25.380;2022-10-19T07:44:00;1.58;;;0.80;;
40849;SDS011;26571;41.610;25.380;2022-10-19T07:46:26;4.00;;;0.90;;
40849;SDS011;26571;41.610;25.380;2022-10-19T07:48:57;2.97;;;0.80;;
40849;SDS011;26571;41.610;25.380;2022-10-19T07:51:22;2.47;;;0.80;;
40849;SDS011;26571;41.610;25.380;2022-10-19T07:53:48;1.52;;;0.85;;
40849;SDS011;26571;41.610;25.380;2022-10-19T07:56:15;3.65;;;0.70;;
40849;SDS011;26571;41.610;25.380;2022-10-19T07:58:43;1.42;;;0.80;;
40849;SDS011;26571;41.610;25.380;2022-10-19T08:01:10;2.78;;;0.98;;
40849;SDS011;26571;41.610;25.380;2022-10-19T08:03:37;1.70;;;0.90;;
40849;SDS011;26571;41.610;25.380;2022-10-19T08:06:03;1.42;;;0.93;;
40849;SDS011;26571;41.610;25.380;2022-10-19T08:08:32;2.67;;;0.70;;
40849;SDS011;26571;41.610;25.380;2022-10-19T08:11:05;3.00;;;0.70;;
40849;SDS011;26571;41.610;25.380;2022-10-19T08:13:32;4.15;;;1.10;;
40849;SDS011;26571;41.610;25.380;2022-10-19T08:15:57;2.15;;;0.70;;
40849;SDS011;26571;41.610;25.380;2022-10-19T08:18:23;2.92;;;1.02;;
40849;SDS011;26571;41.610;25.380;2022-10-19T08:20:48;1.40;;;0.60;;
40849;SDS011;26571;41.610;25.380;2022-10-19T08:23:14;2.15;;;0.70;;
40849;SDS011;26571;41.610;25.380;2022-10-19T08:25:39;2.72;;;0.70;;
40849;SDS011;26571;41.610;25.380;2022-10-19T08:28:05;1.73;;;0.80;;
40849;SDS011;26571;41.610;25.380;2022-10-19T08:30:30;4.80;;;1.00;;
40849;SDS011;26571;41.610;25.380;2022-10-19T08:32:58;1.23;;;0.80;;
40849;SDS011;26571;41.610;25.380;2022-10-19T08:35:24;4.50;;;0.93;;
40849;SDS011;26571;41.610;25.380;2022-10-19T08:37:49;2.80;;;1.23;;
40849;SDS011;26571;41.610;25.380;2022-10-19T08:40:16;2.40;;;0.60;;
40849;SDS011;26571;41.610;25.380;2022-10-19T08:46:00;1.88;;;0.55;;
40849;SDS011;26571;41.610;25.380;2022-10-19T08:48:48;3.20;;;0.73;;
40849;SDS011;26571;41.610;25.380;2022-10-19T08:51:14;1.40;;;0.60;;
40849;SDS011;26571;41.610;25.380;2022-10-19T08:53:44;4.43;;;1.17;;
40849;SDS011;26571;41.610;25.380;2022-10-19T08:56:22;2.17;;;0.60;;
40849;SDS011;26571;41.610;25.380;2022-10-19T09:09:48;2.33;;;0.50;;
40849;SDS011;26571;41.610;25.380;2022-10-19T09:12:21;1.80;;;0.95;;
40849;SDS011;26571;41.610;25.380;2022-10-19T09:14:59;3.20;;;1.38;;
40849;SDS011;26571;41.610;25.380;2022-10-19T09:17:28;2.20;;;0.50;;
40849;SDS011;26571;41.610;25.380;2022-10-19T09:19:55;2.03;;;1.05;;
40849;SDS011;26571;41.610;25.380;2022-10-19T09:22:28;3.33;;;0.82;;
40849;SDS011;26571;41.610;25.380;2022-10-19T09:25:02;1.55;;;0.85;;
40849;SDS011;26571;41.610;25.380;2022-10-19T09:27:38;2.55;;;0.60;;
40849;SDS011;26571;41.610;25.380;2022-10-19T09:30:08;2.97;;;0.85;;
40849;SDS011;26571;41.610;25.380;2022-10-19T09:32:38;2.35;;;1.20;;
40849;SDS011;26571;41.610;25.380;2022-10-19T09:35:05;3.72;;;1.95;;
40849;SDS011;26571;41.610;25.380;2022-10-19T09:37:43;0.73;;;0.50;;
40849;SDS011;26571;41.610;25.380;2022-10-19T09:40:21;2.05;;;0.82;;
40849;SDS011;26571;41.610;25.380;2022-10-19T09:42:52;3.90;;;0.50;;
40849;SDS011;26571;41.610;25.380;2022-10-19T09:47:59;1.42;;;0.75;;
40849;SDS011;26571;41.610;25.380;2022-10-19T09:50:27;2.67;;;0.82;;
40849;SDS011;26571;41.610;25.380;2022-10-19T09:52:56;2.13;;;0.55;;
40849;SDS011;26571;41.610;25.380;2022-10-19T10:00:31;2.05;;;1.83;;
40849;SDS011;26571;41.610;25.380;2022-10-19T10:02:59;1.85;;;0.40;;
40849;SDS011;26571;41.610;25.380;2022-10-19T10:05:35;1.83;;;0.50;;
40849;SDS011;26571;41.610;25.380;2022-10-19T10:08:01;2.13;;;0.77;;
40849;SDS011;26571;41.610;25.380;2022-10-19T10:10:29;1.15;;;0.63;;
40849;SDS011;26571;41.610;25.380;2022-10-19T10:13:01;1.65;;;0.50;;
40849;SDS011;26571;41.610;25.380;2022-10-19T10:15:28;2.38;;;0.65;;
40849;SDS011;26571;41.610;25.380;2022-10-19T10:17:59;0.88;;;0.57;;
40849;SDS011;26571;41.610;25.380;2022-10-19T10:20:28;0.95;;;0.70;;
40849;SDS011;26571;41.610;25.380;2022-10-19T10:23:00;2.80;;;1.88;;
40849;SDS011;26571;41.610;25.380;2022-10-19T10:25:30;1.85;;;1.27;;
40849;SDS011;26571;41.610;25.380;2022-10-19T10:28:02;1.23;;;0.52;;
40849;SDS011;26571;41.610;25.380;2022-10-19T10:30:45;2.25;;;0.50;;
40849;SDS011;26571;41.610;25.380;2022-10-19T10:33:15;0.85;;;0.57;;
40849;SDS011;26571;41.610;25.380;2022-10-19T10:35:47;1.27;;;0.43;;
40849;SDS011;26571;41.610;25.380;2022-10-19T10:38:20;2.40;;;0.40;;
40849;SDS011;26571;41.610;25.380;2022-10-19T10:40:52;0.93;;;0.60;;
40849;SDS011;26571;41.610;25.380;2022-10-19T10:43:21;5.60;;;0.40;;
40849;SDS011;26571;41.610;25.380;2022-10-19T10:45:59;0.43;;;0.43;;
40849;SDS011;26571;41.610;25.380;2022-10-19T10:48:29;2.53;;;0.55;;
40849;SDS011;26571;41.610;25.380;2022-10-19T11:01:36;2.05;;;0.60;;
40849;SDS011;26571;41.610;25.380;2022-10-19T11:04:07;0.50;;;0.50;;
40849;SDS011;26571;41.610;25.380;2022-10-19T11:06:40;0.52;;;0.40;;
40849;SDS011;26571;41.610;25.380;2022-10-19T11:09:25;1.20;;;0.50;;
40849;SDS011;26571;41.610;25.380;2022-10-19T11:11:59;0.95;;;0.50;;
40849;SDS011;26571;41.610;25.380;2022-10-19T11:17:11;1.58;;;0.40;;
40849;SDS011;26571;41.610;25.380;2022-10-19T11:19:42;3.65;;;0.50;;
40849;SDS011;26571;41.610;25.380;2022-10-19T11:27:21;3.35;;;0.60;;
40849;SDS011;26571;41.610;25.380;2022-10-19T11:30:19;0.60;;;0.40;;
40849;SDS011;26571;41.610;25.380;2022-10-19T11:35:35;9.95;;;4.50;;
40849;SDS011;26571;41.610;25.380;2022-10-19T11:40:47;1.08;;;0.40;;
40849;SDS011;26571;41.610;25.380;2022-10-19T11:57:02;2.75;;;0.50;;
40849;SDS011;26571;41.610;25.380;2022-10-19T12:00:04;0.32;;;0.32;;
40849;SDS011;26571;41.610;25.380;2022-10-19T12:05:16;0.75;;;0.50;;
40849;SDS011;26571;41.610;25.380;2022-10-19T12:10:39;0.53;;;0.40;;
40849;SDS011;26571;41.610;25.380;2022-10-19T12:13:11;1.67;;;0.40;;
40849;SDS011;26571;41.610;25.380;2022-10-19T12:15:49;3.15;;;0.40;;
40849;SDS011;26571;41.610;25.380;2022-10-19T12:18:40;2.70;;;0.40;;
40849;SDS011;26571;41.610;25.380;2022-10-19T12:21:27;1.30;;;0.40;;
40849;SDS011;26571;41.610;25.380;2022-10-19T12:23:57;0.57;;;0.40;;
40849;SDS011;26571;41.610;25.380;2022-10-19T12:26:26;0.50;;;0.50;;
40849;SDS011;26571;41.610;25.380;2022-10-19T12:28:57;6.93;;;0.80;;
40849;SDS011;26571;41.610;25.380;2022-10-19T12:31:26;1.88;;;0.40;;
40849;SDS011;26571;41.610;25.380;2022-10-19T12:33:59;1.17;;;0.40;;
40849;SDS011;26571;41.610;25.380;2022-10-19T12:48:13;3.80;;;0.40;;
40849;SDS011;26571;41.610;25.380;2022-10-19T12:53:32;1.90;;;0.30;;
40849;SDS011;26571;41.610;25.380;2022-10-19T12:56:23;1.13;;;0.50;;
40849;SDS011;26571;41.610;25.380;2022-10-19T12:58:58;2.47;;;0.77;;
40849;SDS011;26571;41.610;25.380;2022-10-19T13:04:10;2.50;;;0.73;;
40849;SDS011;26571;41.610;25.380;2022-10-19T13:06:41;1.07;;;1.00;;
40849;SDS011;26571;41.610;25.380;2022-10-19T13:09:18;4.15;;;0.45;;
40849;SDS011;26571;41.610;25.380;2022-10-19T13:27:59;2.25;;;0.80;;
40849;SDS011;26571;41.610;25.380;2022-10-19T13:32:59;2.83;;;0.75;;
40849;SDS011;26571;41.610;25.380;2022-10-19T13:38:31;0.55;;;0.55;;
40849;SDS011;26571;41.610;25.380;2022-10-19T14:10:45;1.50;;;0.40;;
40849;SDS011;26571;41.610;25.380;2022-10-19T14:13:15;0.63;;;0.63;;
40849;SDS011;26571;41.610;25.380;2022-10-19T14:15:49;1.65;;;0.40;;
40849;SDS011;26571;41.610;25.380;2022-10-19T14:18:27;0.60;;;0.40;;
40849;SDS011;26571;41.610;25.380;2022-10-19T14:23:25;0.63;;;0.45;;
40849;SDS011;26571;41.610;25.380;2022-10-19T14:26:06;2.03;;;0.50;;
40849;SDS011;26571;41.610;25.380;2022-10-19T14:28:35;0.77;;;0.40;;
40849;SDS011;26571;41.610;25.380;2022-10-19T14:31:02;1.67;;;0.75;;
40849;SDS011;26571;41.610;25.380;2022-10-19T14:33:37;1.75;;;0.88;;
40849;SDS011;26571;41.610;25.380;2022-10-19T14:36:05;5.10;;;1.40;;
40849;SDS011;26571;41.610;25.380;2022-10-19T14:38:39;3.08;;;0.73;;
40849;SDS011;26571;41.610;25.380;2022-10-19T14:43:56;1.65;;;0.65;;
40849;SDS011;26571;41.610;25.380;2022-10-19T14:46:27;1.15;;;0.40;;
40849;SDS011;26571;41.610;25.380;2022-10-19T14:48:58;1.08;;;0.98;;
40849;SDS011;26571;41.610;25.380;2022-10-19T14:54:46;1.48;;;0.50;;
40849;SDS011;26571;41.610;25.380;2022-10-19T15:01:57;1.20;;;0.50;;
40849;SDS011;26571;41.610;25.380;2022-10-19T15:04:26;3.58;;;0.82;;
40849;SDS011;26571;41.610;25.380;2022-10-19T15:06:59;3.80;;;0.75;;
40849;SDS011;26571;41.610;25.380;2022-10-19T15:09:33;3.05;;;0.45;;
40849;SDS011;26571;41.610;25.380;2022-10-19T15:12:07;1.57;;;0.63;;
40849;SDS011;26571;41.610;25.380;2022-10-19T15:14:39;0.60;;;0.50;;
40849;SDS011;26571;41.610;25.380;2022-10-19T15:17:05;1.23;;;0.50;;
40849;SDS011;26571;41.610;25.380;2022-10-19T15:19:46;1.23;;;0.50;;
40849;SDS011;26571;41.610;25.380;2022-10-19T15:24:53;4.55;;;0.90;;
40849;SDS011;26571;41.610;25.380;2022-10-19T15:27:32;11.85;;;1.80;;
40849;SDS011;26571;41.610;25.380;2022-10-19T15:30:04;4.68;;;1.27;;
40849;SDS011;26571;41.610;25.380;2022-10-19T15:32:48;2.75;;;1.77;;
40849;SDS011;26571;41.610;25.380;2022-10-19T15:35:35;8.93;;;2.10;;
40849;SDS011;26571;41.610;25.380;2022-10-19T15:38:06;7.55;;;3.60;;
40849;SDS011;26571;41.610;25.380;2022-10-19T15:40:40;6.10;;;3.45;;
40849;SDS011;26571;41.610;25.380;2022-10-19T15:53:52;5.35;;;3.28;;
40849;SDS011;26571;41.610;25.380;2022-10-19T15:56:21;8.15;;;3.38;;
40849;SDS011;26571;41.610;25.380;2022-10-19T15:58:51;6.30;;;3.05;;
40849;SDS011;26571;41.610;25.380;2022-10-19T16:01:19;3.38;;;2.05;;
40849;SDS011;26571;41.610;25.380;2022-10-19T16:03:50;4.10;;;2.75;;
40849;SDS011;26571;41.610;25.380;2022-10-19T16:06:16;4.28;;;2.35;;
40849;SDS011;26571;41.610;25.380;2022-10-19T16:08:43;6.28;;;2.65;;
40849;SDS011;26571;41.610;25.380;2022-10-19T16:11:13;7.60;;;3.13;;
40849;SDS011;26571;41.610;25.380;2022-10-19T16:13:39;5.60;;;2.20;;
40849;SDS011;26571;41.610;25.380;2022-10-19T16:16:05;9.20;;;2.75;;
40849;SDS011;26571;41.610;25.380;2022-10-19T16:18:33;7.75;;;4.30;;
40849;SDS011;26571;41.610;25.380;2022-10-19T16:20:58;13.90;;;5.88;;
40849;SDS011;26571;41.610;25.380;2022-10-19T16:23:24;8.82;;;4.60;;
40849;SDS011;26571;41.610;25.380;2022-10-19T16:25:50;9.13;;;3.97;;
40849;SDS011;26571;41.610;25.380;2022-10-19T16:28:17;8.88;;;5.28;;
40849;SDS011;26571;41.610;25.380;2022-10-19T16:30:43;9.15;;;6.10;;
40849;SDS011;26571;41.610;25.380;2022-10-19T16:33:09;10.60;;;7.07;;
40849;SDS011;26571;41.610;25.380;2022-10-19T16:35:35;13.90;;;9.23;;
40849;SDS011;26571;41.610;25.380;2022-10-19T16:38:01;12.70;;;8.15;;
40849;SDS011;26571;41.610;25.380;2022-10-19T16:40:26;10.38;;;7.78;;
40849;SDS011;26571;41.610;25.380;2022-10-19T16:42:52;12.23;;;6.65;;
40849;SDS011;26571;41.610;25.380;2022-10-19T16:45:20;9.65;;;5.50;;
40849;SDS011;26571;41.610;25.380;2022-10-19T16:47:48;9.43;;;4.63;;
40849;SDS011;26571;41.610;25.380;2022-10-19T16:50:14;8.27;;;5.47;;
40849;SDS011;26571;41.610;25.380;2022-10-19T16:52:39;14.50;;;7.68;;
40849;SDS011;26571;41.610;25.380;2022-10-19T16:55:05;10.25;;;6.05;;
40849;SDS011;26571;41.610;25.380;2022-10-19T16:57:30;8.88;;;5.97;;
40849;SDS011;26571;41.610;25.380;2022-10-19T16:59:56;11.52;;;6.70;;
40849;SDS011;26571;41.610;25.380;2022-10-19T17:02:21;7.97;;;6.57;;
40849;SDS011;26571;41.610;25.380;2022-10-19T17:04:47;8.40;;;4.72;;
40849;SDS011;26571;41.610;25.380;2022-10-19T17:07:13;8.68;;;5.03;;
40849;SDS011;26571;41.610;25.380;2022-10-19T17:09:39;4.67;;;4.13;;
40849;SDS011;26571;41.610;25.380;2022-10-19T17:12:05;4.50;;;3.65;;
40849;SDS011;26571;41.610;25.380;2022-10-19T17:14:31;7.55;;;5.45;;
40849;SDS011;26571;41.610;25.380;2022-10-19T17:16:57;11.35;;;5.88;;
40849;SDS011;26571;41.610;25.380;2022-10-19T17:19:22;11.65;;;5.90;;
40849;SDS011;26571;41.610;25.380;2022-10-19T17:21:48;12.95;;;6.38;;
40849;SDS011;26571;41.610;25.380;2022-10-19T17:24:14;7.65;;;5.20;;
40849;SDS011;26571;41.610;25.380;2022-10-19T17:26:42;10.85;;;6.20;;
40849;SDS011;26571;41.610;25.380;2022-10-19T17:29:09;8.93;;;7.18;;
40849;SDS011;26571;41.610;25.380;2022-10-19T17:31:36;10.07;;;6.68;;
40849;SDS011;26571;41.610;25.380;2022-10-19T17:36:29;14.10;;;6.80;;
40849;SDS011;26571;41.610;25.380;2022-10-19T17:38:57;8.35;;;3.70;;
40849;SDS011;26571;41.610;25.380;2022-10-19T17:41:24;7.38;;;4.22;;
40849;SDS011;26571;41.610;25.380;2022-10-19T17:43:51;5.32;;;3.72;;
40849;SDS011;26571;41.610;25.380;2022-10-19T17:46:17;4.85;;;4.00;;
40849;SDS011;26571;41.610;25.380;2022-10-19T17:48:45;6.55;;;5.22;;
40849;SDS011;26571;41.610;25.380;2022-10-19T17:51:13;7.18;;;5.72;;
40849;SDS011;26571;41.610;25.380;2022-10-19T17:53:40;10.85;;;6.72;;
40849;SDS011;26571;41.610;25.380;2022-10-19T17:56:07;17.10;;;7.55;;
40849;SDS011;26571;41.610;25.380;2022-10-19T17:58:35;10.63;;;6.60;;